sensor_id;sensor_type;location;lat;lon;timestamp;P1;durP1;ratioP1;P2;durP2;ratioP2
11113;SDS011;5610;52.154;9.198;2023-01-28T00:01:30;3.63;;;2.40;;
11113;SDS011;5610;52.154;9.198;2023-01-28T00:04:16;4.95;;;2.30;;
11113;SDS011;5610;52.154;9.198;2023-01-28T00:07:01;2.50;;;2.30;;
11113;SDS011;5610;52.154;9.198;2023-01-28T00:09:47;2.70;;;2.50;;
11113;SDS011;5610;52.154;9.198;2023-01-28T00:12:32;6.82;;;4.47;;
11113;SDS011;5610;52.154;9.198;2023-01-28T00:15:17;5.07;;;3.70;;
11113;SDS011;5610;52.154;9.198;2023-01-28T00:18:04;4.38;;;2.70;;
11113;SDS011;5610;52.154;9.198;2023-01-28T00:20:56;3.25;;;2.50;;
11113;SDS011;5610;52.154;9.198;2023-01-28T00:23:42;9.98;;;6.63;;
11113;SDS011;5610;52.154;9.198;2023-01-28T00:26:32;11.32;;;7.05;;
11113;SDS011;5610;52.154;9.198;2023-01-28T00:29:17;9.07;;;6.05;;
11113;SDS011;5610;52.154;9.198;2023-01-28T00:32:02;5.53;;;4.60;;
11113;SDS011;5610;52.154;9.198;2023-01-28T00:34:49;2.85;;;2.65;;
11113;SDS011;5610;52.154;9.198;2023-01-28T00:37:34;2.47;;;2.28;;
11113;SDS011;5610;52.154;9.198;2023-01-28T00:40:20;3.25;;;2.40;;
11113;SDS011;5610;52.154;9.198;2023-01-28T00:43:05;3.03;;;2.72;;
11113;SDS011;5610;52.154;9.198;2023-01-28T00:45:51;4.38;;;2.30;;
11113;SDS011;5610;52.154;9.198;2023-01-28T00:48:36;2.72;;;2.13;;
11113;SDS011;5610;52.154;9.198;2023-01-28T00:51:24;2.20;;;2.00;;
11113;SDS011;5610;52.154;9.198;2023-01-28T00:54:10;3.28;;;2.40;;
11113;SDS011;5610;52.154;9.198;2023-01-28T00:56:56;3.45;;;2.10;;
11113;SDS011;5610;52.154;9.198;2023-01-28T00:59:41;4.05;;;2.35;;
11113;SDS011;5610;52.154;9.198;2023-01-28T01:02:27;3.05;;;2.10;;
11113;SDS011;5610;52.154;9.198;2023-01-28T01:05:13;2.58;;;1.80;;
11113;SDS011;5610;52.154;9.198;2023-01-28T01:07:59;2.58;;;2.10;;
11113;SDS011;5610;52.154;9.198;2023-01-28T01:10:45;2.53;;;2.30;;
11113;SDS011;5610;52.154;9.198;2023-01-28T01:13:30;3.35;;;2.40;;
11113;SDS011;5610;52.154;9.198;2023-01-28T01:16:17;2.78;;;2.08;;
11113;SDS011;5610;52.154;9.198;2023-01-28T01:19:06;2.13;;;2.00;;
11113;SDS011;5610;52.154;9.198;2023-01-28T01:21:53;2.55;;;2.20;;
11113;SDS011;5610;52.154;9.198;2023-01-28T01:24:41;3.55;;;3.25;;
11113;SDS011;5610;52.154;9.198;2023-01-28T01:27:26;9.63;;;5.10;;
11113;SDS011;5610;52.154;9.198;2023-01-28T01:30:12;5.57;;;2.88;;
11113;SDS011;5610;52.154;9.198;2023-01-28T01:32:58;4.15;;;2.00;;
11113;SDS011;5610;52.154;9.198;2023-01-28T01:35:43;4.65;;;2.00;;
11113;SDS011;5610;52.154;9.198;2023-01-28T01:38:28;3.20;;;2.20;;
11113;SDS011;5610;52.154;9.198;2023-01-28T01:41:20;4.90;;;2.47;;
11113;SDS011;5610;52.154;9.198;2023-01-28T01:47:32;5.78;;;2.03;;
11113;SDS011;5610;52.154;9.198;2023-01-28T01:50:24;2.05;;;1.70;;
11113;SDS011;5610;52.154;9.198;2023-01-28T01:53:14;4.30;;;1.70;;
11113;SDS011;5610;52.154;9.198;2023-01-28T01:56:03;2.08;;;1.67;;
11113;SDS011;5610;52.154;9.198;2023-01-28T01:58:54;2.22;;;2.00;;
11113;SDS011;5610;52.154;9.198;2023-01-28T02:01:40;5.35;;;2.15;;
11113;SDS011;5610;52.154;9.198;2023-01-28T02:04:28;3.95;;;1.83;;
11113;SDS011;5610;52.154;9.198;2023-01-28T02:07:16;3.10;;;1.83;;
11113;SDS011;5610;52.154;9.198;2023-01-28T02:10:03;2.45;;;2.25;;
11113;SDS011;5610;52.154;9.198;2023-01-28T02:12:52;2.85;;;1.85;;
11113;SDS011;5610;52.154;9.198;2023-01-28T02:15:44;2.05;;;1.75;;
11113;SDS011;5610;52.154;9.198;2023-01-28T02:18:31;3.00;;;1.88;;
11113;SDS011;5610;52.154;9.198;2023-01-28T02:21:23;2.05;;;1.92;;
11113;SDS011;5610;52.154;9.198;2023-01-28T02:24:33;1.95;;;1.65;;
11113;SDS011;5610;52.154;9.198;2023-01-28T02:27:54;2.95;;;1.88;;
11113;SDS011;5610;52.154;9.198;2023-01-28T02:30:53;1.85;;;1.75;;
11113;SDS011;5610;52.154;9.198;2023-01-28T02:33:45;2.40;;;1.60;;
11113;SDS011;5610;52.154;9.198;2023-01-28T02:36:40;2.47;;;1.50;;
11113;SDS011;5610;52.154;9.198;2023-01-28T02:39:31;2.35;;;1.90;;
11113;SDS011;5610;52.154;9.198;2023-01-28T02:42:20;3.30;;;2.28;;
11113;SDS011;5610;52.154;9.198;2023-01-28T02:45:17;1.55;;;1.45;;
11113;SDS011;5610;52.154;9.198;2023-01-28T02:48:05;6.55;;;2.08;;
11113;SDS011;5610;52.154;9.198;2023-01-28T02:50:51;4.35;;;1.90;;
11113;SDS011;5610;52.154;9.198;2023-01-28T02:53:44;1.73;;;1.63;;
11113;SDS011;5610;52.154;9.198;2023-01-28T02:56:37;3.47;;;1.70;;
11113;SDS011;5610;52.154;9.198;2023-01-28T02:59:30;3.50;;;1.83;;
11113;SDS011;5610;52.154;9.198;2023-01-28T03:02:27;1.75;;;1.40;;
11113;SDS011;5610;52.154;9.198;2023-01-28T03:05:18;2.10;;;1.70;;
11113;SDS011;5610;52.154;9.198;2023-01-28T03:08:06;2.17;;;1.52;;
11113;SDS011;5610;52.154;9.198;2023-01-28T03:11:08;1.95;;;1.60;;
11113;SDS011;5610;52.154;9.198;2023-01-28T03:14:11;2.63;;;1.67;;
11113;SDS011;5610;52.154;9.198;2023-01-28T03:17:15;2.67;;;2.20;;
11113;SDS011;5610;52.154;9.198;2023-01-28T03:20:22;3.70;;;2.50;;
11113;SDS011;5610;52.154;9.198;2023-01-28T03:23:29;1.88;;;1.70;;
11113;SDS011;5610;52.154;9.198;2023-01-28T03:26:41;2.63;;;1.75;;
11113;SDS011;5610;52.154;9.198;2023-01-28T03:29:50;2.80;;;1.90;;
11113;SDS011;5610;52.154;9.198;2023-01-28T03:32:56;1.63;;;1.52;;
11113;SDS011;5610;52.154;9.198;2023-01-28T03:36:02;2.60;;;2.05;;
11113;SDS011;5610;52.154;9.198;2023-01-28T03:39:08;2.05;;;1.85;;
11113;SDS011;5610;52.154;9.198;2023-01-28T03:41:54;2.72;;;1.90;;
11113;SDS011;5610;52.154;9.198;2023-01-28T03:44:42;2.10;;;1.50;;
11113;SDS011;5610;52.154;9.198;2023-01-28T03:47:35;2.53;;;1.73;;
11113;SDS011;5610;52.154;9.198;2023-01-28T03:50:24;1.90;;;1.65;;
11113;SDS011;5610;52.154;9.198;2023-01-28T03:53:17;3.15;;;1.95;;
11113;SDS011;5610;52.154;9.198;2023-01-28T03:56:04;4.72;;;2.35;;
11113;SDS011;5610;52.154;9.198;2023-01-28T03:58:49;3.00;;;2.17;;
11113;SDS011;5610;52.154;9.198;2023-01-28T04:01:40;2.20;;;2.00;;
11113;SDS011;5610;52.154;9.198;2023-01-28T04:04:25;7.28;;;2.10;;
11113;SDS011;5610;52.154;9.198;2023-01-28T04:07:13;2.80;;;1.58;;
11113;SDS011;5610;52.154;9.198;2023-01-28T04:10:19;2.28;;;2.08;;
11113;SDS011;5610;52.154;9.198;2023-01-28T04:13:09;2.22;;;1.90;;
11113;SDS011;5610;52.154;9.198;2023-01-28T04:15:55;2.50;;;1.50;;
11113;SDS011;5610;52.154;9.198;2023-01-28T04:18:40;2.28;;;1.45;;
11113;SDS011;5610;52.154;9.198;2023-01-28T04:21:26;2.92;;;1.55;;
11113;SDS011;5610;52.154;9.198;2023-01-28T04:24:11;1.95;;;1.85;;
11113;SDS011;5610;52.154;9.198;2023-01-28T04:26:59;2.08;;;1.77;;
11113;SDS011;5610;52.154;9.198;2023-01-28T04:29:44;2.13;;;1.63;;
11113;SDS011;5610;52.154;9.198;2023-01-28T04:32:56;1.85;;;1.60;;
11113;SDS011;5610;52.154;9.198;2023-01-28T04:35:49;3.35;;;2.08;;
11113;SDS011;5610;52.154;9.198;2023-01-28T04:38:59;4.93;;;2.38;;
11113;SDS011;5610;52.154;9.198;2023-01-28T04:41:55;1.80;;;1.70;;
11113;SDS011;5610;52.154;9.198;2023-01-28T04:44:55;2.72;;;1.88;;
11113;SDS011;5610;52.154;9.198;2023-01-28T04:48:03;4.63;;;2.33;;
11113;SDS011;5610;52.154;9.198;2023-01-28T04:51:08;2.30;;;2.10;;
11113;SDS011;5610;52.154;9.198;2023-01-28T04:54:23;3.17;;;2.22;;
11113;SDS011;5610;52.154;9.198;2023-01-28T04:57:09;4.30;;;2.10;;
11113;SDS011;5610;52.154;9.198;2023-01-28T04:59:56;4.30;;;2.13;;
11113;SDS011;5610;52.154;9.198;2023-01-28T05:02:44;5.18;;;2.28;;
11113;SDS011;5610;52.154;9.198;2023-01-28T05:05:29;4.10;;;2.10;;
11113;SDS011;5610;52.154;9.198;2023-01-28T05:08:20;3.40;;;2.22;;
11113;SDS011;5610;52.154;9.198;2023-01-28T05:11:05;6.15;;;2.55;;
11113;SDS011;5610;52.154;9.198;2023-01-28T05:13:50;2.80;;;2.30;;
11113;SDS011;5610;52.154;9.198;2023-01-28T05:16:38;3.05;;;2.35;;
11113;SDS011;5610;52.154;9.198;2023-01-28T05:19:24;7.10;;;2.70;;
11113;SDS011;5610;52.154;9.198;2023-01-28T05:22:09;3.50;;;2.15;;
11113;SDS011;5610;52.154;9.198;2023-01-28T05:24:59;2.45;;;2.25;;
11113;SDS011;5610;52.154;9.198;2023-01-28T05:27:48;2.85;;;2.55;;
11113;SDS011;5610;52.154;9.198;2023-01-28T05:30:34;2.83;;;2.45;;
11113;SDS011;5610;52.154;9.198;2023-01-28T05:33:20;3.88;;;2.78;;
11113;SDS011;5610;52.154;9.198;2023-01-28T05:36:06;2.60;;;2.40;;
11113;SDS011;5610;52.154;9.198;2023-01-28T05:38:52;2.53;;;2.28;;
11113;SDS011;5610;52.154;9.198;2023-01-28T05:41:37;4.35;;;2.30;;
11113;SDS011;5610;52.154;9.198;2023-01-28T05:44:23;2.95;;;2.78;;
11113;SDS011;5610;52.154;9.198;2023-01-28T05:47:44;3.08;;;2.47;;
11113;SDS011;5610;52.154;9.198;2023-01-28T05:50:54;3.15;;;2.95;;
11113;SDS011;5610;52.154;9.198;2023-01-28T05:53:48;4.10;;;2.97;;
11113;SDS011;5610;52.154;9.198;2023-01-28T05:56:34;2.90;;;2.70;;
11113;SDS011;5610;52.154;9.198;2023-01-28T05:59:19;3.40;;;3.20;;
11113;SDS011;5610;52.154;9.198;2023-01-28T06:02:07;3.13;;;2.83;;
11113;SDS011;5610;52.154;9.198;2023-01-28T06:04:53;3.88;;;3.28;;
11113;SDS011;5610;52.154;9.198;2023-01-28T06:07:40;4.57;;;3.30;;
11113;SDS011;5610;52.154;9.198;2023-01-28T06:10:28;2.90;;;2.50;;
11113;SDS011;5610;52.154;9.198;2023-01-28T06:13:13;2.67;;;2.58;;
11113;SDS011;5610;52.154;9.198;2023-01-28T06:16:17;4.10;;;3.20;;
11113;SDS011;5610;52.154;9.198;2023-01-28T06:19:21;3.63;;;3.28;;
11113;SDS011;5610;52.154;9.198;2023-01-28T06:22:07;4.32;;;3.10;;
11113;SDS011;5610;52.154;9.198;2023-01-28T06:24:53;3.70;;;3.40;;
11113;SDS011;5610;52.154;9.198;2023-01-28T06:27:39;4.25;;;3.30;;
11113;SDS011;5610;52.154;9.198;2023-01-28T06:30:24;3.00;;;2.70;;
11113;SDS011;5610;52.154;9.198;2023-01-28T06:33:09;2.80;;;2.63;;
11113;SDS011;5610;52.154;9.198;2023-01-28T06:35:55;3.60;;;2.90;;
11113;SDS011;5610;52.154;9.198;2023-01-28T06:38:40;3.70;;;3.40;;
11113;SDS011;5610;52.154;9.198;2023-01-28T06:41:27;4.40;;;4.10;;
11113;SDS011;5610;52.154;9.198;2023-01-28T06:44:12;3.83;;;3.47;;
11113;SDS011;5610;52.154;9.198;2023-01-28T06:46:57;4.18;;;3.85;;
11113;SDS011;5610;52.154;9.198;2023-01-28T06:49:43;6.05;;;4.20;;
11113;SDS011;5610;52.154;9.198;2023-01-28T06:52:28;5.10;;;4.55;;
11113;SDS011;5610;52.154;9.198;2023-01-28T06:55:13;4.15;;;3.75;;
11113;SDS011;5610;52.154;9.198;2023-01-28T06:58:00;4.57;;;4.18;;
11113;SDS011;5610;52.154;9.198;2023-01-28T07:00:46;3.60;;;3.40;;
11113;SDS011;5610;52.154;9.198;2023-01-28T07:03:31;4.57;;;4.22;;
11113;SDS011;5610;52.154;9.198;2023-01-28T07:06:16;4.93;;;4.00;;
11113;SDS011;5610;52.154;9.198;2023-01-28T07:09:02;4.57;;;4.18;;
11113;SDS011;5610;52.154;9.198;2023-01-28T07:11:47;4.90;;;4.50;;
11113;SDS011;5610;52.154;9.198;2023-01-28T07:14:34;4.60;;;4.30;;
11113;SDS011;5610;52.154;9.198;2023-01-28T07:17:19;4.88;;;4.35;;
11113;SDS011;5610;52.154;9.198;2023-01-28T07:20:05;3.50;;;3.20;;
11113;SDS011;5610;52.154;9.198;2023-01-28T07:22:52;3.08;;;2.83;;
11113;SDS011;5610;52.154;9.198;2023-01-28T07:25:37;3.60;;;2.80;;
11113;SDS011;5610;52.154;9.198;2023-01-28T07:28:23;2.50;;;2.30;;
11113;SDS011;5610;52.154;9.198;2023-01-28T07:31:09;3.13;;;2.83;;
11113;SDS011;5610;52.154;9.198;2023-01-28T07:33:55;2.65;;;2.45;;
11113;SDS011;5610;52.154;9.198;2023-01-28T07:36:40;3.53;;;2.70;;
11113;SDS011;5610;52.154;9.198;2023-01-28T07:39:25;3.67;;;3.38;;
11113;SDS011;5610;52.154;9.198;2023-01-28T07:42:11;3.72;;;3.38;;
11113;SDS011;5610;52.154;9.198;2023-01-28T07:45:03;4.60;;;3.97;;
11113;SDS011;5610;52.154;9.198;2023-01-28T07:47:54;4.25;;;3.90;;
11113;SDS011;5610;52.154;9.198;2023-01-28T07:50:40;5.35;;;3.00;;
11113;SDS011;5610;52.154;9.198;2023-01-28T07:53:25;4.13;;;3.72;;
11113;SDS011;5610;52.154;9.198;2023-01-28T07:56:10;5.32;;;3.10;;
11113;SDS011;5610;52.154;9.198;2023-01-28T07:58:56;4.40;;;3.60;;
11113;SDS011;5610;52.154;9.198;2023-01-28T08:01:41;3.83;;;3.38;;
11113;SDS011;5610;52.154;9.198;2023-01-28T08:04:28;5.57;;;4.13;;
11113;SDS011;5610;52.154;9.198;2023-01-28T08:07:13;4.43;;;4.00;;
11113;SDS011;5610;52.154;9.198;2023-01-28T08:09:58;4.82;;;4.00;;
11113;SDS011;5610;52.154;9.198;2023-01-28T08:12:51;6.50;;;4.18;;
11113;SDS011;5610;52.154;9.198;2023-01-28T08:15:37;6.03;;;4.00;;
11113;SDS011;5610;52.154;9.198;2023-01-28T08:18:23;3.97;;;3.55;;
11113;SDS011;5610;52.154;9.198;2023-01-28T08:21:10;4.50;;;3.30;;
11113;SDS011;5610;52.154;9.198;2023-01-28T08:23:56;3.47;;;3.17;;
11113;SDS011;5610;52.154;9.198;2023-01-28T08:26:41;3.80;;;3.60;;
11113;SDS011;5610;52.154;9.198;2023-01-28T08:29:26;3.95;;;3.72;;
11113;SDS011;5610;52.154;9.198;2023-01-28T08:32:12;4.38;;;4.07;;
11113;SDS011;5610;52.154;9.198;2023-01-28T08:34:58;3.72;;;3.28;;
11113;SDS011;5610;52.154;9.198;2023-01-28T08:37:45;4.32;;;3.92;;
11113;SDS011;5610;52.154;9.198;2023-01-28T08:40:30;4.95;;;3.50;;
11113;SDS011;5610;52.154;9.198;2023-01-28T08:43:15;3.35;;;3.15;;
11113;SDS011;5610;52.154;9.198;2023-01-28T08:46:01;11.38;;;3.88;;
11113;SDS011;5610;52.154;9.198;2023-01-28T08:48:49;3.85;;;3.30;;
11113;SDS011;5610;52.154;9.198;2023-01-28T08:51:34;4.00;;;3.70;;
11113;SDS011;5610;52.154;9.198;2023-01-28T08:54:21;10.55;;;9.65;;
11113;SDS011;5610;52.154;9.198;2023-01-28T08:57:06;7.00;;;6.30;;
11113;SDS011;5610;52.154;9.198;2023-01-28T08:59:51;4.80;;;4.10;;
11113;SDS011;5610;52.154;9.198;2023-01-28T09:02:37;3.63;;;3.33;;
11113;SDS011;5610;52.154;9.198;2023-01-28T09:05:22;5.18;;;3.58;;
11113;SDS011;5610;52.154;9.198;2023-01-28T09:08:08;5.18;;;4.10;;
11113;SDS011;5610;52.154;9.198;2023-01-28T09:10:57;4.05;;;3.72;;
11113;SDS011;5610;52.154;9.198;2023-01-28T09:13:42;4.13;;;3.80;;
11113;SDS011;5610;52.154;9.198;2023-01-28T09:16:28;3.38;;;3.17;;
11113;SDS011;5610;52.154;9.198;2023-01-28T09:19:13;6.10;;;3.85;;
11113;SDS011;5610;52.154;9.198;2023-01-28T09:21:59;3.95;;;3.55;;
11113;SDS011;5610;52.154;9.198;2023-01-28T09:24:44;4.20;;;3.33;;
11113;SDS011;5610;52.154;9.198;2023-01-28T09:27:31;4.45;;;3.67;;
11113;SDS011;5610;52.154;9.198;2023-01-28T09:30:16;4.33;;;3.97;;
11113;SDS011;5610;52.154;9.198;2023-01-28T09:33:01;5.45;;;4.15;;
11113;SDS011;5610;52.154;9.198;2023-01-28T09:35:46;4.60;;;3.67;;
11113;SDS011;5610;52.154;9.198;2023-01-28T09:38:32;4.30;;;3.90;;
11113;SDS011;5610;52.154;9.198;2023-01-28T09:41:23;4.85;;;4.43;;
11113;SDS011;5610;52.154;9.198;2023-01-28T09:44:20;3.70;;;3.40;;
11113;SDS011;5610;52.154;9.198;2023-01-28T09:47:18;4.80;;;4.30;;
11113;SDS011;5610;52.154;9.198;2023-01-28T09:50:10;5.22;;;4.03;;
11113;SDS011;5610;52.154;9.198;2023-01-28T09:52:59;5.50;;;5.00;;
11113;SDS011;5610;52.154;9.198;2023-01-28T09:55:49;6.60;;;5.68;;
11113;SDS011;5610;52.154;9.198;2023-01-28T09:58:38;5.30;;;4.72;;
11113;SDS011;5610;52.154;9.198;2023-01-28T10:01:32;5.63;;;4.10;;
11113;SDS011;5610;52.154;9.198;2023-01-28T10:04:26;5.53;;;4.40;;
11113;SDS011;5610;52.154;9.198;2023-01-28T10:07:23;6.05;;;4.90;;
11113;SDS011;5610;52.154;9.198;2023-01-28T10:10:16;4.95;;;4.55;;
11113;SDS011;5610;52.154;9.198;2023-01-28T10:13:15;6.05;;;5.20;;
11113;SDS011;5610;52.154;9.198;2023-01-28T10:16:14;5.28;;;4.80;;
11113;SDS011;5610;52.154;9.198;2023-01-28T10:19:11;5.70;;;4.68;;
11113;SDS011;5610;52.154;9.198;2023-01-28T10:22:04;5.72;;;5.22;;
11113;SDS011;5610;52.154;9.198;2023-01-28T10:24:53;7.97;;;6.27;;
11113;SDS011;5610;52.154;9.198;2023-01-28T10:27:44;6.60;;;6.10;;
11113;SDS011;5610;52.154;9.198;2023-01-28T10:30:31;7.50;;;6.35;;
11113;SDS011;5610;52.154;9.198;2023-01-28T10:33:21;8.85;;;7.90;;
11113;SDS011;5610;52.154;9.198;2023-01-28T10:36:14;9.27;;;8.47;;
11113;SDS011;5610;52.154;9.198;2023-01-28T10:39:00;7.33;;;6.63;;
11113;SDS011;5610;52.154;9.198;2023-01-28T10:41:46;7.00;;;6.40;;
11113;SDS011;5610;52.154;9.198;2023-01-28T10:44:33;7.38;;;6.78;;
11113;SDS011;5610;52.154;9.198;2023-01-28T10:47:23;8.73;;;7.85;;
11113;SDS011;5610;52.154;9.198;2023-01-28T10:50:16;8.15;;;7.55;;
11113;SDS011;5610;52.154;9.198;2023-01-28T10:53:07;10.45;;;8.23;;
11113;SDS011;5610;52.154;9.198;2023-01-28T10:55:53;9.85;;;8.82;;
11113;SDS011;5610;52.154;9.198;2023-01-28T10:58:46;8.50;;;7.80;;
11113;SDS011;5610;52.154;9.198;2023-01-28T11:01:41;8.82;;;7.90;;
11113;SDS011;5610;52.154;9.198;2023-01-28T11:04:30;8.32;;;7.63;;
11113;SDS011;5610;52.154;9.198;2023-01-28T11:07:17;8.85;;;7.95;;
11113;SDS011;5610;52.154;9.198;2023-01-28T11:13:14;7.80;;;7.20;;
11113;SDS011;5610;52.154;9.198;2023-01-28T11:16:01;8.90;;;8.02;;
11113;SDS011;5610;52.154;9.198;2023-01-28T11:18:49;10.00;;;8.70;;
11113;SDS011;5610;52.154;9.198;2023-01-28T11:21:37;8.95;;;8.15;;
11113;SDS011;5610;52.154;9.198;2023-01-28T11:24:24;8.95;;;8.13;;
11113;SDS011;5610;52.154;9.198;2023-01-28T11:27:14;7.85;;;7.15;;
11113;SDS011;5610;52.154;9.198;2023-01-28T11:30:03;8.50;;;7.70;;
11113;SDS011;5610;52.154;9.198;2023-01-28T11:32:54;9.05;;;8.35;;
11113;SDS011;5610;52.154;9.198;2023-01-28T11:35:51;9.52;;;7.13;;
11113;SDS011;5610;52.154;9.198;2023-01-28T11:38:45;8.05;;;7.45;;
11113;SDS011;5610;52.154;9.198;2023-01-28T11:41:33;7.65;;;6.95;;
11113;SDS011;5610;52.154;9.198;2023-01-28T11:44:21;6.50;;;6.00;;
11113;SDS011;5610;52.154;9.198;2023-01-28T11:47:12;7.35;;;6.85;;
11113;SDS011;5610;52.154;9.198;2023-01-28T11:53:13;7.00;;;6.30;;
11113;SDS011;5610;52.154;9.198;2023-01-28T11:59:30;6.73;;;6.13;;
11113;SDS011;5610;52.154;9.198;2023-01-28T12:02:37;5.30;;;4.80;;
11113;SDS011;5610;52.154;9.198;2023-01-28T12:05:39;4.63;;;4.30;;
11113;SDS011;5610;52.154;9.198;2023-01-28T12:08:33;4.07;;;3.70;;
11113;SDS011;5610;52.154;9.198;2023-01-28T12:11:27;4.37;;;4.00;;
11113;SDS011;5610;52.154;9.198;2023-01-28T12:14:42;4.20;;;3.90;;
11113;SDS011;5610;52.154;9.198;2023-01-28T12:17:45;4.20;;;3.77;;
11113;SDS011;5610;52.154;9.198;2023-01-28T12:20:44;4.50;;;4.10;;
11113;SDS011;5610;52.154;9.198;2023-01-28T12:23:51;4.00;;;3.70;;
11113;SDS011;5610;52.154;9.198;2023-01-28T12:26:47;4.93;;;4.53;;
11113;SDS011;5610;52.154;9.198;2023-01-28T12:29:38;5.63;;;5.13;;
11113;SDS011;5610;52.154;9.198;2023-01-28T12:32:34;4.60;;;3.87;;
11113;SDS011;5610;52.154;9.198;2023-01-28T12:35:39;4.03;;;3.73;;
11113;SDS011;5610;52.154;9.198;2023-01-28T12:38:37;8.03;;;7.33;;
11113;SDS011;5610;52.154;9.198;2023-01-28T12:41:33;4.90;;;4.60;;
11113;SDS011;5610;52.154;9.198;2023-01-28T12:44:24;4.83;;;4.27;;
11113;SDS011;5610;52.154;9.198;2023-01-28T12:47:15;4.23;;;3.90;;
11113;SDS011;5610;52.154;9.198;2023-01-28T12:50:09;3.20;;;3.00;;
11113;SDS011;5610;52.154;9.198;2023-01-28T12:53:01;10.07;;;3.80;;
11113;SDS011;5610;52.154;9.198;2023-01-28T12:55:56;5.20;;;4.10;;
11113;SDS011;5610;52.154;9.198;2023-01-28T12:58:48;4.20;;;3.80;;
11113;SDS011;5610;52.154;9.198;2023-01-28T13:01:39;4.00;;;3.60;;
11113;SDS011;5610;52.154;9.198;2023-01-28T13:04:31;4.80;;;3.70;;
11113;SDS011;5610;52.154;9.198;2023-01-28T13:07:22;6.03;;;4.33;;
11113;SDS011;5610;52.154;9.198;2023-01-28T13:10:16;5.73;;;4.40;;
11113;SDS011;5610;52.154;9.198;2023-01-28T13:13:06;4.80;;;4.40;;
11113;SDS011;5610;52.154;9.198;2023-01-28T13:15:57;4.77;;;4.37;;
11113;SDS011;5610;52.154;9.198;2023-01-28T13:18:45;5.27;;;4.97;;
11113;SDS011;5610;52.154;9.198;2023-01-28T13:21:31;5.33;;;4.93;;
11113;SDS011;5610;52.154;9.198;2023-01-28T13:24:19;5.10;;;4.70;;
11113;SDS011;5610;52.154;9.198;2023-01-28T13:27:19;4.43;;;4.03;;
11113;SDS011;5610;52.154;9.198;2023-01-28T13:30:22;4.40;;;4.10;;
11113;SDS011;5610;52.154;9.198;2023-01-28T13:36:18;4.00;;;3.70;;
11113;SDS011;5610;52.154;9.198;2023-01-28T13:39:14;3.90;;;3.50;;
11113;SDS011;5610;52.154;9.198;2023-01-28T13:42:18;4.70;;;4.20;;
11113;SDS011;5610;52.154;9.198;2023-01-28T13:45:17;3.57;;;3.27;;
11113;SDS011;5610;52.154;9.198;2023-01-28T13:48:14;3.43;;;3.13;;
11113;SDS011;5610;52.154;9.198;2023-01-28T13:51:09;4.00;;;3.70;;
11113;SDS011;5610;52.154;9.198;2023-01-28T13:54:01;3.47;;;3.27;;
11113;SDS011;5610;52.154;9.198;2023-01-28T13:57:04;4.87;;;4.37;;
11113;SDS011;5610;52.154;9.198;2023-01-28T14:00:11;4.83;;;3.30;;
11113;SDS011;5610;52.154;9.198;2023-01-28T14:16:41;5.00;;;4.60;;
11113;SDS011;5610;52.154;9.198;2023-01-28T14:19:36;4.23;;;3.80;;
11113;SDS011;5610;52.154;9.198;2023-01-28T14:22:23;4.00;;;3.70;;
11113;SDS011;5610;52.154;9.198;2023-01-28T14:25:11;5.30;;;4.17;;
11113;SDS011;5610;52.154;9.198;2023-01-28T14:27:58;4.20;;;3.80;;
11113;SDS011;5610;52.154;9.198;2023-01-28T14:30:48;4.73;;;4.33;;
11113;SDS011;5610;52.154;9.198;2023-01-28T14:33:40;6.90;;;4.00;;
11113;SDS011;5610;52.154;9.198;2023-01-28T14:36:25;5.10;;;4.70;;
11113;SDS011;5610;52.154;9.198;2023-01-28T14:39:15;5.10;;;4.60;;
11113;SDS011;5610;52.154;9.198;2023-01-28T14:42:02;5.87;;;5.07;;
11113;SDS011;5610;52.154;9.198;2023-01-28T14:44:49;5.47;;;4.97;;
11113;SDS011;5610;52.154;9.198;2023-01-28T14:47:51;5.10;;;4.80;;
11113;SDS011;5610;52.154;9.198;2023-01-28T14:51:04;6.43;;;5.93;;
11113;SDS011;5610;52.154;9.198;2023-01-28T14:54:04;7.73;;;6.30;;
11113;SDS011;5610;52.154;9.198;2023-01-28T14:57:03;6.70;;;6.17;;
11113;SDS011;5610;52.154;9.198;2023-01-28T15:00:13;11.43;;;10.33;;
11113;SDS011;5610;52.154;9.198;2023-01-28T15:03:07;9.17;;;8.23;;
11113;SDS011;5610;52.154;9.198;2023-01-28T15:06:00;8.10;;;7.27;;
11113;SDS011;5610;52.154;9.198;2023-01-28T15:08:51;8.17;;;7.33;;
11113;SDS011;5610;52.154;9.198;2023-01-28T15:11:37;9.27;;;8.37;;
11113;SDS011;5610;52.154;9.198;2023-01-28T15:14:27;9.40;;;8.60;;
11113;SDS011;5610;52.154;9.198;2023-01-28T15:17:18;11.47;;;7.93;;
11113;SDS011;5610;52.154;9.198;2023-01-28T15:20:13;6.63;;;6.03;;
11113;SDS011;5610;52.154;9.198;2023-01-28T15:23:05;7.03;;;6.32;;
11113;SDS011;5610;52.154;9.198;2023-01-28T15:25:51;8.65;;;7.85;;
11113;SDS011;5610;52.154;9.198;2023-01-28T15:28:38;10.52;;;9.52;;
11113;SDS011;5610;52.154;9.198;2023-01-28T15:31:24;8.80;;;7.90;;
11113;SDS011;5610;52.154;9.198;2023-01-28T15:34:12;7.85;;;7.10;;
11113;SDS011;5610;52.154;9.198;2023-01-28T15:36:59;8.60;;;7.90;;
11113;SDS011;5610;52.154;9.198;2023-01-28T15:39:46;8.10;;;7.30;;
11113;SDS011;5610;52.154;9.198;2023-01-28T15:42:32;7.90;;;7.10;;
11113;SDS011;5610;52.154;9.198;2023-01-28T15:45:19;9.68;;;8.93;;
11113;SDS011;5610;52.154;9.198;2023-01-28T15:48:05;10.45;;;9.65;;
11113;SDS011;5610;52.154;9.198;2023-01-28T15:50:56;14.43;;;12.93;;
11113;SDS011;5610;52.154;9.198;2023-01-28T15:53:45;14.70;;;12.27;;
11113;SDS011;5610;52.154;9.198;2023-01-28T15:56:34;21.58;;;17.25;;
11113;SDS011;5610;52.154;9.198;2023-01-28T15:59:22;41.20;;;29.13;;
11113;SDS011;5610;52.154;9.198;2023-01-28T16:02:17;21.73;;;16.70;;
11113;SDS011;5610;52.154;9.198;2023-01-28T16:05:05;22.42;;;18.85;;
11113;SDS011;5610;52.154;9.198;2023-01-28T16:07:51;30.88;;;26.90;;
11113;SDS011;5610;52.154;9.198;2023-01-28T16:10:37;33.55;;;30.65;;
11113;SDS011;5610;52.154;9.198;2023-01-28T16:13:24;20.85;;;18.83;;
11113;SDS011;5610;52.154;9.198;2023-01-28T16:16:12;16.50;;;15.15;;
11113;SDS011;5610;52.154;9.198;2023-01-28T16:18:57;21.17;;;19.17;;
11113;SDS011;5610;52.154;9.198;2023-01-28T16:21:44;27.42;;;25.02;;
11113;SDS011;5610;52.154;9.198;2023-01-28T16:24:31;19.98;;;17.38;;
11113;SDS011;5610;52.154;9.198;2023-01-28T16:27:19;12.45;;;11.18;;
11113;SDS011;5610;52.154;9.198;2023-01-28T16:30:07;12.70;;;11.60;;
11113;SDS011;5610;52.154;9.198;2023-01-28T16:32:55;10.80;;;9.82;;
11113;SDS011;5610;52.154;9.198;2023-01-28T16:35:41;12.07;;;10.18;;
11113;SDS011;5610;52.154;9.198;2023-01-28T16:38:26;11.55;;;10.45;;
11113;SDS011;5610;52.154;9.198;2023-01-28T16:41:12;12.88;;;11.52;;
11113;SDS011;5610;52.154;9.198;2023-01-28T16:43:59;12.57;;;11.02;;
11113;SDS011;5610;52.154;9.198;2023-01-28T16:46:49;16.48;;;14.88;;
11113;SDS011;5610;52.154;9.198;2023-01-28T16:49:34;27.77;;;24.25;;
11113;SDS011;5610;52.154;9.198;2023-01-28T16:52:20;14.35;;;12.90;;
11113;SDS011;5610;52.154;9.198;2023-01-28T16:55:05;17.15;;;13.02;;
11113;SDS011;5610;52.154;9.198;2023-01-28T16:57:51;16.45;;;14.88;;
11113;SDS011;5610;52.154;9.198;2023-01-28T17:00:39;14.05;;;12.65;;
11113;SDS011;5610;52.154;9.198;2023-01-28T17:03:26;14.23;;;12.88;;
11113;SDS011;5610;52.154;9.198;2023-01-28T17:06:13;13.80;;;12.25;;
11113;SDS011;5610;52.154;9.198;2023-01-28T17:09:00;32.10;;;29.00;;
11113;SDS011;5610;52.154;9.198;2023-01-28T17:11:46;34.40;;;31.15;;
11113;SDS011;5610;52.154;9.198;2023-01-28T17:14:31;25.55;;;23.15;;
11113;SDS011;5610;52.154;9.198;2023-01-28T17:17:16;21.83;;;19.50;;
11113;SDS011;5610;52.154;9.198;2023-01-28T17:20:03;37.38;;;29.88;;
11113;SDS011;5610;52.154;9.198;2023-01-28T17:22:49;34.20;;;27.33;;
11113;SDS011;5610;52.154;9.198;2023-01-28T17:25:35;27.42;;;23.08;;
11113;SDS011;5610;52.154;9.198;2023-01-28T17:28:21;21.90;;;19.60;;
11113;SDS011;5610;52.154;9.198;2023-01-28T17:31:07;24.33;;;21.10;;
11113;SDS011;5610;52.154;9.198;2023-01-28T17:33:55;19.20;;;17.17;;
11113;SDS011;5610;52.154;9.198;2023-01-28T17:36:43;15.45;;;13.95;;
11113;SDS011;5610;52.154;9.198;2023-01-28T17:39:29;14.20;;;12.52;;
11113;SDS011;5610;52.154;9.198;2023-01-28T17:42:14;14.65;;;13.25;;
11113;SDS011;5610;52.154;9.198;2023-01-28T17:45:00;14.35;;;12.95;;
11113;SDS011;5610;52.154;9.198;2023-01-28T17:47:45;13.85;;;12.50;;